Melvan — FGG8116 — position and weather

sailwx.info

Track history (hours):
 
Tides and Currents Weather Stations Pressure Air Temp Water Temp Dewpoint Dewpoint Depression Visibility Wind Speed Wind Dir Waves Ship Positions

Melvan

Last reported at 2017-Sep-24 17:30 UTC. Time now 2017-Sep-24 17:43 UTC.
Position N 47°24' W 002°57'.

Length 32 m; draft 1.6 m.

Type: Passenger vessel. MMSI: 227051790.

Date/timePositionNaut miles runAvg speedWind from/ knotsBaromVisibWave heightAir tempDewpointWater temp
2017-Sep-24 17:30N 47°24' W 002°57'510.4
2017-Sep-24 17:00N 47°27' W 003°04'3 6.4
2017-Sep-24 16:30N 47°29' W 003°07'5 9.2
2017-Sep-24 16:00N 47°26' W 003°02'4 7.8
2017-Sep-24 15:31N 47°24' W 002°57'4 8.8
2017-Sep-24 15:01N 47°21' W 002°53'2 3.7
2017-Sep-24 14:30N 47°22' W 002°54'815.9
2017-Sep-24 14:00N 47°27' W 003°03'3 6.3
2017-Sep-24 13:31N 47°29' W 003°07'714.0
2017-Sep-24 13:00N 47°25' W 002°59'3 5.4
2017-Sep-24 12:30N 47°23' W 002°55'3 0.9
2017-Sep-24 08:51N 47°21' W 002°53'3 9.6
2017-Sep-24 08:31N 47°23' W 002°55'2 4.0
2017-Sep-24 08:00N 47°24' W 002°58'714.4
2017-Sep-24 07:30N 47°28' W 003°07'1 1.4
2017-Sep-24 07:00N 47°29' W 003°07'1 3.0
2017-Sep-24 06:30N 47°28' W 003°06'713.9
2017-Sep-24 06:01N 47°24' W 002°57'4 7.9
2017-Sep-24 05:30N 47°21' W 002°53'  
2017-Sep-21 17:36N 47°21' W 002°53'0 0.0
2017-Sep-21 17:30N 47°21' W 002°53'4 8.9
2017-Sep-21 17:00N 47°24' W 002°57'3 5.5
2017-Sep-21 16:31N 47°25' W 003°00'611.5
2017-Sep-21 16:01N 47°29' W 003°07'0 0.0
2017-Sep-21 15:30N 47°29' W 003°07'4 8.0
2017-Sep-21 15:00N 47°26' W 003°03'4 8.9
2017-Sep-21 14:31N 47°24' W 002°57'4 8.9
2017-Sep-21 14:01N 47°21' W 002°53'0 0.0
2017-Sep-21 08:55N 47°21' W 002°53'3 6.5
2017-Sep-21 08:30N 47°23' W 002°55'3 5.1
2017-Sep-21 08:01N 47°24' W 002°58'714.0
2017-Sep-21 07:30N 47°28' W 003°07'1 2.1
2017-Sep-21 07:00N 47°29' W 003°07'1 2.9
2017-Sep-21 06:30N 47°28' W 003°06'714.0
2017-Sep-21 06:00N 47°24' W 002°57'4 7.7
2017-Sep-21 05:30N 47°21' W 002°53'1 0.1
2017-Sep-20 17:25N 47°21' W 002°53'3 7.5
2017-Sep-20 17:01N 47°23' W 002°55'3 6.3
2017-Sep-20 16:31N 47°25' W 002°59'713.8
2017-Sep-20 16:00N 47°29' W 003°07'0 0.0
2017-Sep-20 15:31N 47°29' W 003°07'611.1
2017-Sep-20 15:01N 47°25' W 003°01'7 1.2
2017-Sep-20 08:51N 47°21' W 002°53'1 3.9
2017-Sep-20 08:30N 47°22' W 002°54'3 6.4
2017-Sep-20 08:00N 47°24' W 002°57'511.0
2017-Sep-20 07:31N 47°27' W 003°04'3 5.8
2017-Sep-20 07:00N 47°29' W 003°07'1 2.1
2017-Sep-20 06:31N 47°28' W 003°07'715.0
2017-Sep-20 06:00N 47°24' W 002°57'4 7.6
2017-Sep-20 05:30N 47°21' W 002°53'1 0.1
2017-Sep-19 17:26N 47°21' W 002°53'4 8.8
2017-Sep-19 17:01N 47°24' W 002°56'2 4.7
2017-Sep-19 16:30N 47°25' W 002°59'714.1
2017-Sep-19 16:00N 47°29' W 003°07'0 0.0
2017-Sep-19 15:31N 47°29' W 003°07'4 8.1
2017-Sep-19 15:00N 47°26' W 003°03'4 8.7
2017-Sep-19 14:30N 47°24' W 002°57'4 8.9
2017-Sep-19 14:00N 47°21' W 002°53'0 0.0
2017-Sep-19 08:36N 47°21' W 002°53'0 0.0
2017-Sep-19 08:31N 47°21' W 002°53'4 8.9
2017-Sep-19 08:00N 47°24' W 002°57'4 7.2
2017-Sep-19 07:30N 47°26' W 003°02'5 9.7
2017-Sep-19 07:01N 47°29' W 003°07'0 0.0
2017-Sep-19 06:31N 47°29' W 003°07'3 5.9
2017-Sep-19 06:00N 47°27' W 003°04'510.8
2017-Sep-19 05:30N 47°24' W 002°57'4 9.0
2017-Sep-19 05:01N 47°21' W 002°53'0 0.0
2017-Sep-18 17:28N 47°21' W 002°53'4 9.4
2017-Sep-18 17:00N 47°24' W 002°57'2 4.7
2017-Sep-18 16:31N 47°25' W 002°60'612.5
2017-Sep-18 16:00N 47°29' W 003°07'0 0.0
2017-Sep-18 15:30N 47°29' W 003°07'4 7.9
2017-Sep-18 15:00N 47°26' W 003°03'4 8.9
2017-Sep-18 14:30N 47°24' W 002°57'4 8.9
2017-Sep-18 14:00N 47°21' W 002°53'0 0.0
2017-Sep-18 13:30N 47°21' W 002°53'0 0.0
2017-Sep-18 07:43N 47°21' W 002°53'0 0.4
2017-Sep-18 07:31N 47°21' W 002°52'4 8.9
2017-Sep-18 07:00N 47°24' W 002°57'611.2
2017-Sep-18 06:30N 47°27' W 003°04'3 5.7
2017-Sep-18 06:01N 47°29' W 003°07'0 0.0
2017-Sep-18 05:31N 47°29' W 003°07'713.2
2017-Sep-18 05:01N 47°25' W 002°59'3 6.5
2017-Sep-18 04:30N 47°23' W 002°55'3 6.5
2017-Sep-18 04:00N 47°21' W 002°53'0 0.0
2017-Sep-17 17:56N 47°21' W 002°53'410.2
2017-Sep-17 17:31N 47°24' W 002°56'4 8.9
2017-Sep-17 17:00N 47°26' W 003°02'4 8.6
2017-Sep-17 16:31N 47°29' W 003°07'4 7.8
2017-Sep-17 16:01N 47°26' W 003°03'5 9.1
2017-Sep-17 15:30N 47°24' W 002°57'4 8.8
2017-Sep-17 15:00N 47°21' W 002°53'5 9.6
2017-Sep-17 14:30N 47°24' W 002°57'815.5
2017-Sep-17 14:00N 47°28' W 003°07'1 1.1
2017-Sep-17 13:30N 47°29' W 003°07'713.8
2017-Sep-17 13:00N 47°25' W 002°59'3 5.6
2017-Sep-17 12:31N 47°23' W 002°55'3 6.7
2017-Sep-17 12:00N 47°21' W 002°53'0 0.0
2017-Sep-17 08:46N 47°21' W 002°53'1 3.6
2017-Sep-17 08:30N 47°21' W 002°53'4 7.1
2017-Sep-17 08:01N 47°24' W 002°57'815.0
2017-Sep-17 07:31N 47°28' W 003°07'1 2.2
2017-Sep-17 07:00N 47°29' W 003°07'1 2.4
2017-Sep-17 06:30N 47°28' W 003°06'714.7
2017-Sep-17 06:01N 47°24' W 002°57'4 8.1
2017-Sep-17 05:30N 47°21' W 002°53'0 0.0
2017-Sep-16 14:39N 47°21' W 002°53'0 0.2
2017-Sep-16 14:31N 47°21' W 002°53'4 8.9
2017-Sep-16 14:01N 47°24' W 002°57'611.4
2017-Sep-16 13:30N 47°27' W 003°04'3 5.5
2017-Sep-16 13:00N 47°29' W 003°07'3 5.4
2017-Sep-16 12:30N 47°27' W 003°04'611.4
2017-Sep-16 12:00N 47°24' W 002°57'4 8.9
2017-Sep-16 11:30N 47°21' W 002°53'0 0.0
2017-Sep-16 08:53N 47°21' W 002°53'2 4.7
2017-Sep-16 08:30N 47°22' W 002°54'3 5.8
2017-Sep-16 08:01N 47°24' W 002°57'815.6
2017-Sep-16 07:30N 47°28' W 003°07'1 1.0
2017-Sep-16 07:00N 47°29' W 003°07'2 4.3
2017-Sep-16 06:30N 47°27' W 003°05'612.5
2017-Sep-16 06:01N 47°24' W 002°57'4 8.1
2017-Sep-16 05:30N 47°21' W 002°53'0 0.9
2017-Sep-16 05:00N 47°21' W 002°53'0 0.0
2017-Sep-15 19:04N 47°21' W 002°53'0 0.3
2017-Sep-15 19:00N 47°21' W 002°53'4 8.5
2017-Sep-15 18:31N 47°24' W 002°56'2 4.0
2017-Sep-15 18:01N 47°25' W 002°59'713.6
2017-Sep-15 17:30N 47°29' W 003°07'0 0.0
2017-Sep-15 17:00N 47°29' W 003°07'0 0.0
2017-Sep-15 16:30N 47°29' W 003°07'5 9.1
2017-Sep-15 16:01N 47°26' W 003°02'4 7.7
2017-Sep-15 15:30N 47°24' W 002°57'4 8.6
2017-Sep-15 15:00N 47°21' W 002°53'0 0.0
2017-Sep-15 14:30N 47°21' W 002°53'4 8.9
2017-Sep-15 14:00N 47°24' W 002°57'4 8.3
2017-Sep-15 13:31N 47°21' W 002°53'0 0.1
2017-Sep-15 10:27N 47°21' W 002°53'4 9.9
2017-Sep-15 10:00N 47°24' W 002°57'0 0.0
2017-Sep-15 09:30N 47°24' W 002°57'4 7.1
2017-Sep-15 09:00N 47°21' W 002°53'2 3.3
2017-Sep-15 08:30N 47°23' W 002°54'2 4.8
2017-Sep-15 08:00N 47°24' W 002°58'815.2
2017-Sep-15 07:31N 47°28' W 003°07'1 1.2
2017-Sep-15 07:00N 47°29' W 003°07'2 3.6
2017-Sep-15 06:31N 47°28' W 003°05'713.2
2017-Sep-15 06:00N 47°24' W 002°57'4 7.8
2017-Sep-15 05:30N 47°21' W 002°53'  
Track history (hours):
 
Tides and Currents Weather Stations Pressure Air Temp Water Temp Dewpoint Dewpoint Depression Visibility Wind Speed Wind Dir Waves Ship Positions

Melvan

Last reported at 2017-Sep-24 17:30 UTC. Time now 2017-Sep-24 17:43 UTC.
Position N 47°24' W 002°57'.

Length 32 m; draft 1.6 m.

Type: Passenger vessel. MMSI: 227051790.

Date/timePositionNaut miles runAvg speedWind from/ knotsBaromVisibWave heightAir tempDewpointWater temp
2017-Sep-24 17:30N 47°24' W 002°57'510.4
2017-Sep-24 17:00N 47°27' W 003°04'3 6.4
2017-Sep-24 16:30N 47°29' W 003°07'5 9.2
2017-Sep-24 16:00N 47°26' W 003°02'4 7.8
2017-Sep-24 15:31N 47°24' W 002°57'4 8.8
2017-Sep-24 15:01N 47°21' W 002°53'2 3.7
2017-Sep-24 14:30N 47°22' W 002°54'815.9
2017-Sep-24 14:00N 47°27' W 003°03'3 6.3
2017-Sep-24 13:31N 47°29' W 003°07'714.0
2017-Sep-24 13:00N 47°25' W 002°59'3 5.4
2017-Sep-24 12:30N 47°23' W 002°55'3 0.9
2017-Sep-24 08:51N 47°21' W 002°53'3 9.6
2017-Sep-24 08:31N 47°23' W 002°55'2 4.0
2017-Sep-24 08:00N 47°24' W 002°58'714.4
2017-Sep-24 07:30N 47°28' W 003°07'1 1.4
2017-Sep-24 07:00N 47°29' W 003°07'1 3.0
2017-Sep-24 06:30N 47°28' W 003°06'713.9
2017-Sep-24 06:01N 47°24' W 002°57'4 7.9
2017-Sep-24 05:30N 47°21' W 002°53'  
2017-Sep-21 17:36N 47°21' W 002°53'0 0.0
2017-Sep-21 17:30N 47°21' W 002°53'4 8.9
2017-Sep-21 17:00N 47°24' W 002°57'3 5.5
2017-Sep-21 16:31N 47°25' W 003°00'611.5
2017-Sep-21 16:01N 47°29' W 003°07'0 0.0
2017-Sep-21 15:30N 47°29' W 003°07'4 8.0
2017-Sep-21 15:00N 47°26' W 003°03'4 8.9
2017-Sep-21 14:31N 47°24' W 002°57'4 8.9
2017-Sep-21 14:01N 47°21' W 002°53'0 0.0
2017-Sep-21 08:55N 47°21' W 002°53'3 6.5
2017-Sep-21 08:30N 47°23' W 002°55'3 5.1
2017-Sep-21 08:01N 47°24' W 002°58'714.0
2017-Sep-21 07:30N 47°28' W 003°07'1 2.1
2017-Sep-21 07:00N 47°29' W 003°07'1 2.9
2017-Sep-21 06:30N 47°28' W 003°06'714.0
2017-Sep-21 06:00N 47°24' W 002°57'4 7.7
2017-Sep-21 05:30N 47°21' W 002°53'1 0.1
2017-Sep-20 17:25N 47°21' W 002°53'3 7.5
2017-Sep-20 17:01N 47°23' W 002°55'3 6.3
2017-Sep-20 16:31N 47°25' W 002°59'713.8
2017-Sep-20 16:00N 47°29' W 003°07'0 0.0
2017-Sep-20 15:31N 47°29' W 003°07'611.1
2017-Sep-20 15:01N 47°25' W 003°01'7 1.2
2017-Sep-20 08:51N 47°21' W 002°53'1 3.9
2017-Sep-20 08:30N 47°22' W 002°54'3 6.4
2017-Sep-20 08:00N 47°24' W 002°57'511.0
2017-Sep-20 07:31N 47°27' W 003°04'3 5.8
2017-Sep-20 07:00N 47°29' W 003°07'1 2.1
2017-Sep-20 06:31N 47°28' W 003°07'715.0
2017-Sep-20 06:00N 47°24' W 002°57'4 7.6
2017-Sep-20 05:30N 47°21' W 002°53'1 0.1
2017-Sep-19 17:26N 47°21' W 002°53'4 8.8
2017-Sep-19 17:01N 47°24' W 002°56'2 4.7
2017-Sep-19 16:30N 47°25' W 002°59'714.1
2017-Sep-19 16:00N 47°29' W 003°07'0 0.0
2017-Sep-19 15:31N 47°29' W 003°07'4 8.1
2017-Sep-19 15:00N 47°26' W 003°03'4 8.7
2017-Sep-19 14:30N 47°24' W 002°57'4 8.9
2017-Sep-19 14:00N 47°21' W 002°53'0 0.0
2017-Sep-19 08:36N 47°21' W 002°53'0 0.0
2017-Sep-19 08:31N 47°21' W 002°53'4 8.9
2017-Sep-19 08:00N 47°24' W 002°57'4 7.2
2017-Sep-19 07:30N 47°26' W 003°02'5 9.7
2017-Sep-19 07:01N 47°29' W 003°07'0 0.0
2017-Sep-19 06:31N 47°29' W 003°07'3 5.9
2017-Sep-19 06:00N 47°27' W 003°04'510.8
2017-Sep-19 05:30N 47°24' W 002°57'4 9.0
2017-Sep-19 05:01N 47°21' W 002°53'0 0.0
2017-Sep-18 17:28N 47°21' W 002°53'4 9.4
2017-Sep-18 17:00N 47°24' W 002°57'2 4.7
2017-Sep-18 16:31N 47°25' W 002°60'612.5
2017-Sep-18 16:00N 47°29' W 003°07'0 0.0
2017-Sep-18 15:30N 47°29' W 003°07'4 7.9
2017-Sep-18 15:00N 47°26' W 003°03'4 8.9
2017-Sep-18 14:30N 47°24' W 002°57'4 8.9
2017-Sep-18 14:00N 47°21' W 002°53'0 0.0
2017-Sep-18 13:30N 47°21' W 002°53'0 0.0
2017-Sep-18 07:43N 47°21' W 002°53'0 0.4
2017-Sep-18 07:31N 47°21' W 002°52'4 8.9
2017-Sep-18 07:00N 47°24' W 002°57'611.2
2017-Sep-18 06:30N 47°27' W 003°04'3 5.7
2017-Sep-18 06:01N 47°29' W 003°07'0 0.0
2017-Sep-18 05:31N 47°29' W 003°07'713.2
2017-Sep-18 05:01N 47°25' W 002°59'3 6.5
2017-Sep-18 04:30N 47°23' W 002°55'3 6.5
2017-Sep-18 04:00N 47°21' W 002°53'0 0.0
2017-Sep-17 17:56N 47°21' W 002°53'410.2
2017-Sep-17 17:31N 47°24' W 002°56'4 8.9
2017-Sep-17 17:00N 47°26' W 003°02'4 8.6
2017-Sep-17 16:31N 47°29' W 003°07'4 7.8
2017-Sep-17 16:01N 47°26' W 003°03'5 9.1
2017-Sep-17 15:30N 47°24' W 002°57'4 8.8
2017-Sep-17 15:00N 47°21' W 002°53'5 9.6
2017-Sep-17 14:30N 47°24' W 002°57'815.5
2017-Sep-17 14:00N 47°28' W 003°07'1 1.1
2017-Sep-17 13:30N 47°29' W 003°07'713.8
2017-Sep-17 13:00N 47°25' W 002°59'3 5.6
2017-Sep-17 12:31N 47°23' W 002°55'3 6.7
2017-Sep-17 12:00N 47°21' W 002°53'0 0.0
2017-Sep-17 08:46N 47°21' W 002°53'1 3.6
2017-Sep-17 08:30N 47°21' W 002°53'4 7.1
2017-Sep-17 08:01N 47°24' W 002°57'815.0
2017-Sep-17 07:31N 47°28' W 003°07'1 2.2
2017-Sep-17 07:00N 47°29' W 003°07'1 2.4
2017-Sep-17 06:30N 47°28' W 003°06'714.7
2017-Sep-17 06:01N 47°24' W 002°57'4 8.1
2017-Sep-17 05:30N 47°21' W 002°53'0 0.0
2017-Sep-16 14:39N 47°21' W 002°53'0 0.2
2017-Sep-16 14:31N 47°21' W 002°53'4 8.9
2017-Sep-16 14:01N 47°24' W 002°57'611.4
2017-Sep-16 13:30N 47°27' W 003°04'3 5.5
2017-Sep-16 13:00N 47°29' W 003°07'3 5.4
2017-Sep-16 12:30N 47°27' W 003°04'611.4
2017-Sep-16 12:00N 47°24' W 002°57'4 8.9
2017-Sep-16 11:30N 47°21' W 002°53'0 0.0
2017-Sep-16 08:53N 47°21' W 002°53'2 4.7
2017-Sep-16 08:30N 47°22' W 002°54'3 5.8
2017-Sep-16 08:01N 47°24' W 002°57'815.6
2017-Sep-16 07:30N 47°28' W 003°07'1 1.0
2017-Sep-16 07:00N 47°29' W 003°07'2 4.3
2017-Sep-16 06:30N 47°27' W 003°05'612.5
2017-Sep-16 06:01N 47°24' W 002°57'4 8.1
2017-Sep-16 05:30N 47°21' W 002°53'0 0.9
2017-Sep-16 05:00N 47°21' W 002°53'0 0.0
2017-Sep-15 19:04N 47°21' W 002°53'0 0.3
2017-Sep-15 19:00N 47°21' W 002°53'4 8.5
2017-Sep-15 18:31N 47°24' W 002°56'2 4.0
2017-Sep-15 18:01N 47°25' W 002°59'713.6
2017-Sep-15 17:30N 47°29' W 003°07'0 0.0
2017-Sep-15 17:00N 47°29' W 003°07'0 0.0
2017-Sep-15 16:30N 47°29' W 003°07'5 9.1
2017-Sep-15 16:01N 47°26' W 003°02'4 7.7
2017-Sep-15 15:30N 47°24' W 002°57'4 8.6
2017-Sep-15 15:00N 47°21' W 002°53'0 0.0
2017-Sep-15 14:30N 47°21' W 002°53'4 8.9
2017-Sep-15 14:00N 47°24' W 002°57'4 8.3
2017-Sep-15 13:31N 47°21' W 002°53'0 0.1
2017-Sep-15 10:27N 47°21' W 002°53'4 9.9
2017-Sep-15 10:00N 47°24' W 002°57'0 0.0
2017-Sep-15 09:30N 47°24' W 002°57'4 7.1
2017-Sep-15 09:00N 47°21' W 002°53'2 3.3
2017-Sep-15 08:30N 47°23' W 002°54'2 4.8
2017-Sep-15 08:00N 47°24' W 002°58'815.2
2017-Sep-15 07:31N 47°28' W 003°07'1 1.2
2017-Sep-15 07:00N 47°29' W 003°07'2 3.6
2017-Sep-15 06:31N 47°28' W 003°05'713.2
2017-Sep-15 06:00N 47°24' W 002°57'4 7.8
2017-Sep-15 05:30N 47°21' W 002°53'  

Dump ship's entire track history